Main page
Satellite images 10-day forecastsClimateMarine weather Cyclones Lightning AirportsFAQ Newsletter About
Weather : Europe Africa North America South America Asia Australia-Oceania Others
Languages Contact

Budapest, Hungary

Budapest Ferenc Liszt International Airport

latitude: 47-26N, longitude: 019-16E, elevation: 151 m


METAR: LHBP 311730Z 16005KT CAVOK 30/16 Q1014 NOSIG
TAF: LHBP 311700Z 3118/0118 16007KT CAVOK BECMG 3118/3120 VRB03KT BECMG 0107/0110 20012KT BECMG 0116/0118 20006KT

Time: 19:41 (17:41 UTC)

Current weather observation

The report was made 11 minutes ago, at 17:30 UTC
Wind 5 kt from the South/Southeast
Temperature 30°C
Humidity 43%
Pressure 1014 hPa
Visibility 10 km or more
no clouds below 1500 m and no cumulonimbus

Change units

Forecast

The report was made 41 minutes ago, at 17:00 UTC
Forecast valid from 31 at 18 UTC to 01 at 18 UTC
Wind 7 kt from the South/Southeast
Visibility 10 km or more
no clouds below 1500 m and no cumulonimbus
Becoming
from 31 at 18 UTC to 31 at 20 UTC
Wind 3 kt from variable directions
Becoming
from 01 at 07 UTC to 01 at 10 UTC
Wind 12 kt from the South/Southwest
Becoming
from 01 at 16 UTC to 01 at 18 UTC
Wind 6 kt from the South/Southwest
The information on this site is subject to a disclaimer
Weather : Europe Africa North America South America Asia Australia-Oceania Others
Satellite images 10-day forecastsClimateMarine weather Cyclones Lightning AirportsFAQ Languages Contact Newsletter About